Time;durP1;ratioP1;P1;durP2;ratioP2;P2;SDS_P1;SDS_P2;PMS_P1;PMS_P2;Temp;Humidity;BMP_temperature;BMP_pressure;BME280_temperature;BME280_humidity;BME280_pressure;Samples;Min_cycle;Max_cycle;Signal;HPM_P1;HPM_P2
2021/10/22 00:00:46;;;;;;;1.20;1.10;;;23.80;42.30;;;;;;4777781;29;20600;-58
2021/10/22 00:03:13;;;;;;;2.03;1.20;;;23.80;42.30;;;;;;4781722;29;20214;-57
2021/10/22 00:05:40;;;;;;;0.82;0.80;;;23.80;42.30;;;;;;4780945;29;20112;-57
2021/10/22 00:08:07;;;;;;;1.00;1.00;;;23.80;42.30;;;;;;4776503;29;20055;-57
2021/10/22 00:10:34;;;;;;;1.25;1.10;;;23.80;42.30;;;;;;4774789;30;20054;-58
2021/10/22 00:13:02;;;;;;;1.10;1.02;;;23.80;42.30;;;;;;4767588;30;20514;-58
2021/10/22 00:15:29;;;;;;;0.82;0.82;;;23.80;42.30;;;;;;4779885;30;20051;-58
2021/10/22 00:17:56;;;;;;;1.15;1.05;;;23.80;42.30;;;;;;4777649;29;20059;-58
2021/10/22 00:20:24;;;;;;;1.17;1.10;;;23.80;42.30;;;;;;4774692;30;20051;-58
2021/10/22 00:22:51;;;;;;;1.10;1.00;;;23.80;42.30;;;;;;4773588;29;20574;-57
2021/10/22 00:25:19;;;;;;;1.42;1.20;;;23.80;42.30;;;;;;4778752;30;20050;-58
2021/10/22 00:27:47;;;;;;;1.85;1.45;;;23.80;42.30;;;;;;4776617;29;20058;-57
2021/10/22 00:30:14;;;;;;;1.38;1.00;;;23.80;42.30;;;;;;4777793;29;20147;-58
2021/10/22 00:32:41;;;;;;;0.90;0.90;;;23.80;42.30;;;;;;4781397;29;20056;-58
2021/10/22 00:35:09;;;;;;;0.95;0.80;;;23.80;42.30;;;;;;4781000;29;20142;-58
2021/10/22 00:37:36;;;;;;;0.63;0.63;;;23.80;42.30;;;;;;4777931;29;20164;-58
2021/10/22 00:40:04;;;;;;;1.27;0.95;;;23.80;42.30;;;;;;4773377;29;20083;-58
2021/10/22 00:42:33;;;;;;;2.88;1.13;;;23.80;42.30;;;;;;4763636;30;20299;-58
2021/10/22 00:45:02;;;;;;;1.05;0.98;;;23.80;42.30;;;;;;4762268;30;20097;-58
2021/10/22 00:47:29;;;;;;;3.15;1.20;;;23.80;42.30;;;;;;4765206;29;20138;-58
2021/10/22 00:49:56;;;;;;;1.15;1.00;;;23.80;42.30;;;;;;4766117;29;20342;-58
2021/10/22 00:52:27;;;;;;;0.90;0.80;;;23.80;42.30;;;;;;4777405;30;20051;-58
2021/10/22 00:54:57;;;;;;;1.20;1.20;;;23.70;42.30;;;;;;4777297;29;20095;-58
2021/10/22 00:57:25;;;;;;;1.23;1.08;;;23.80;42.40;;;;;;4761506;30;20056;-58
2021/10/22 00:59:52;;;;;;;1.10;0.95;;;23.80;42.40;;;;;;4773472;30;20059;-58
2021/10/22 01:02:20;;;;;;;1.35;1.00;;;23.70;42.40;;;;;;4781453;29;20090;-58
2021/10/22 01:04:47;;;;;;;0.82;0.57;;;23.70;42.40;;;;;;4781087;29;20055;-58
2021/10/22 01:07:15;;;;;;;0.90;0.90;;;23.70;42.40;;;;;;4779468;29;20054;-58
2021/10/22 01:09:45;;;;;;;0.80;0.80;;;23.70;42.40;;;;;;4768013;30;20172;-58
2021/10/22 01:12:13;;;;;;;1.23;0.90;;;23.70;42.50;;;;;;4781407;29;20055;-58
2021/10/22 01:14:41;;;;;;;1.17;0.90;;;23.70;42.50;;;;;;4780789;29;20588;-58
2021/10/22 01:17:28;;;;;;;1.25;0.93;;;23.70;42.50;;;;;;4780416;29;20138;-58
2021/10/22 01:19:55;;;;;;;1.08;0.90;;;23.70;42.50;;;;;;4775153;30;20055;-58
2021/10/22 01:22:22;;;;;;;1.25;0.70;;;23.60;42.50;;;;;;4780565;29;20158;-58
2021/10/22 01:24:49;;;;;;;0.80;0.80;;;23.60;42.50;;;;;;4780576;29;20290;-57
2021/10/22 01:27:17;;;;;;;0.98;0.90;;;23.70;42.60;;;;;;4762784;30;20058;-58
2021/10/22 01:29:44;;;;;;;0.98;0.98;;;23.60;42.50;;;;;;4770482;30;20458;-57
2021/10/22 01:32:11;;;;;;;2.33;0.82;;;23.60;42.50;;;;;;4780740;29;20048;-58
2021/10/22 01:34:38;;;;;;;2.35;0.93;;;23.70;42.60;;;;;;4780182;29;20090;-57
2021/10/22 01:37:05;;;;;;;0.80;0.80;;;23.60;42.50;;;;;;4780927;29;20130;-57
2021/10/22 01:39:32;;;;;;;1.00;1.00;;;23.60;42.50;;;;;;4773174;29;20446;-58
2021/10/22 01:41:59;;;;;;;1.20;0.77;;;23.60;42.50;;;;;;4780396;29;20051;-58
2021/10/22 01:44:27;;;;;;;0.70;0.60;;;23.60;42.50;;;;;;4780608;29;20062;-57
2021/10/22 01:46:55;;;;;;;0.82;0.82;;;23.70;42.60;;;;;;4780265;29;20116;-57
2021/10/22 01:49:22;;;;;;;1.20;0.95;;;23.70;42.60;;;;;;4773112;29;20503;-58
2021/10/22 01:51:49;;;;;;;1.58;1.00;;;23.60;42.50;;;;;;4779667;29;20078;-58
2021/10/22 01:54:17;;;;;;;1.27;0.80;;;23.70;42.60;;;;;;4780923;29;20051;-58
2021/10/22 01:56:44;;;;;;;0.90;0.88;;;23.60;42.50;;;;;;4780508;29;20090;-57
2021/10/22 01:59:11;;;;;;;0.95;0.95;;;23.60;42.50;;;;;;4771586;29;20415;-58
2021/10/22 02:01:39;;;;;;;0.77;0.50;;;23.70;42.60;;;;;;4780543;29;20418;-58
2021/10/22 02:04:06;;;;;;;0.70;0.70;;;23.70;42.50;;;;;;4779686;29;20055;-58
2021/10/22 02:06:33;;;;;;;0.95;0.80;;;23.60;42.50;;;;;;4779412;29;20075;-58
2021/10/22 02:09:00;;;;;;;0.95;0.88;;;23.60;42.50;;;;;;4765484;29;20557;-58
2021/10/22 02:11:27;;;;;;;0.82;0.70;;;23.70;42.50;;;;;;4780279;29;20750;-58
2021/10/22 02:13:55;;;;;;;0.65;0.65;;;23.70;42.50;;;;;;4779985;29;20685;-58
2021/10/22 02:16:22;;;;;;;0.73;0.57;;;23.70;42.50;;;;;;4780221;29;20065;-58
2021/10/22 02:18:49;;;;;;;1.23;0.90;;;23.70;42.60;;;;;;4766767;29;20549;-58
2021/10/22 02:21:17;;;;;;;0.90;0.60;;;23.60;42.50;;;;;;4779562;30;20097;-58
2021/10/22 02:23:45;;;;;;;0.32;0.32;;;23.60;42.50;;;;;;4780089;29;20558;-58
2021/10/22 02:26:12;;;;;;;0.60;0.60;;;23.60;42.50;;;;;;4780453;29;20051;-58
2021/10/22 02:28:39;;;;;;;0.85;0.65;;;23.60;42.50;;;;;;4772624;29;20136;-58
2021/10/22 02:31:06;;;;;;;0.40;0.40;;;23.60;42.60;;;;;;4780005;30;20138;-58
2021/10/22 02:33:33;;;;;;;0.47;0.45;;;23.60;42.60;;;;;;4783655;29;20051;-58
2021/10/22 02:36:00;;;;;;;1.00;0.90;;;23.60;43.10;;;;;;4784044;29;20506;-58
2021/10/22 02:38:27;;;;;;;0.60;0.60;;;23.60;42.60;;;;;;4778316;29;20461;-58
2021/10/22 02:40:55;;;;;;;0.63;0.60;;;23.60;42.60;;;;;;4775743;30;20051;-57
2021/10/22 02:43:22;;;;;;;0.88;0.80;;;23.60;42.60;;;;;;4764729;30;20052;-57
2021/10/22 02:45:50;;;;;;;1.05;0.80;;;23.60;42.60;;;;;;4765221;30;20056;-57
2021/10/22 02:48:17;;;;;;;0.60;0.60;;;23.60;42.70;;;;;;4771782;29;20557;-58
2021/10/22 02:50:44;;;;;;;1.27;0.85;;;23.60;42.70;;;;;;4777657;29;20183;-57
2021/10/22 02:53:11;;;;;;;1.75;0.40;;;23.60;42.60;;;;;;4782824;29;20130;-57
2021/10/22 02:55:38;;;;;;;0.57;0.57;;;23.60;42.70;;;;;;4781846;29;20057;-57
2021/10/22 02:58:05;;;;;;;0.77;0.68;;;23.60;42.70;;;;;;4779605;29;20323;-57
2021/10/22 03:00:33;;;;;;;0.70;0.70;;;23.50;42.60;;;;;;4780654;29;20431;-57
2021/10/22 03:03:00;;;;;;;1.02;0.60;;;23.50;42.70;;;;;;4783090;29;20051;-57
2021/10/22 03:05:32;;;;;;;0.75;0.75;;;23.50;42.70;;;;;;4778040;29;20055;-58
2021/10/22 03:07:59;;;;;;;0.70;0.70;;;23.50;42.70;;;;;;4764203;30;20091;-57
2021/10/22 03:10:27;;;;;;;0.75;0.63;;;23.50;42.70;;;;;;4778163;29;20134;-57
2021/10/22 03:12:54;;;;;;;0.50;0.50;;;23.50;42.70;;;;;;4783032;29;20550;-57
2021/10/22 03:15:21;;;;;;;0.60;0.60;;;23.50;42.70;;;;;;4782933;29;20071;-61
2021/10/22 03:17:48;;;;;;;0.85;0.80;;;23.50;42.70;;;;;;4777315;29;20485;-56
2021/10/22 03:20:15;;;;;;;0.75;0.60;;;23.60;42.70;;;;;;4777900;29;20239;-59
2021/10/22 03:22:42;;;;;;;0.30;0.30;;;23.60;42.70;;;;;;4781856;29;20136;-59
2021/10/22 03:25:09;;;;;;;0.80;0.60;;;23.50;42.60;;;;;;4783338;29;20077;-59
2021/10/22 03:27:37;;;;;;;0.60;0.43;;;23.60;42.70;;;;;;4776212;29;20570;-59
2021/10/22 03:30:05;;;;;;;0.65;0.60;;;23.60;42.70;;;;;;4773768;29;20581;-59
2021/10/22 03:32:33;;;;;;;0.60;0.60;;;23.50;42.60;;;;;;4782556;29;20047;-59
2021/10/22 03:35:01;;;;;;;0.73;0.65;;;23.60;42.70;;;;;;4764675;30;20055;-59
2021/10/22 03:37:28;;;;;;;0.55;0.40;;;23.60;42.70;;;;;;4776681;29;20063;-59
2021/10/22 03:39:55;;;;;;;0.57;0.57;;;23.60;42.70;;;;;;4774595;29;20150;-59
2021/10/22 03:42:22;;;;;;;0.50;0.50;;;23.60;42.60;;;;;;4777370;29;20043;-59
2021/10/22 03:44:50;;;;;;;0.40;0.40;;;23.60;42.60;;;;;;4780161;29;20055;-56
2021/10/22 03:47:17;;;;;;;0.80;0.60;;;23.60;42.70;;;;;;4781752;29;20087;-57
2021/10/22 03:49:44;;;;;;;0.95;0.50;;;23.60;42.60;;;;;;4774359;30;20170;-57
2021/10/22 03:52:11;;;;;;;1.90;0.50;;;23.50;42.60;;;;;;4776304;29;20132;-59
2021/10/22 03:54:38;;;;;;;0.50;0.50;;;23.50;42.60;;;;;;4774926;30;20134;-59
2021/10/22 03:57:05;;;;;;;0.50;0.50;;;23.50;42.60;;;;;;4780850;29;20173;-57
2021/10/22 03:59:32;;;;;;;0.80;0.50;;;23.50;42.60;;;;;;4769842;29;20106;-57
2021/10/22 04:01:59;;;;;;;0.93;0.57;;;23.50;42.70;;;;;;4779775;30;20138;-57
2021/10/22 04:04:30;;;;;;;0.50;0.50;;;23.50;42.70;;;;;;4781535;29;20055;-57
2021/10/22 04:06:57;;;;;;;0.45;0.45;;;23.50;42.70;;;;;;4781990;29;20479;-57
2021/10/22 04:09:26;;;;;;;1.98;0.85;;;23.50;42.70;;;;;;4766532;29;20652;-57
2021/10/22 04:11:54;;;;;;;0.70;0.50;;;23.50;42.70;;;;;;4790005;29;20193;-57
2021/10/22 04:14:21;;;;;;;0.32;0.32;;;23.50;42.70;;;;;;4773556;29;20123;-57
2021/10/22 04:16:48;;;;;;;0.88;0.80;;;23.50;42.70;;;;;;4771962;30;20082;-57
2021/10/22 04:19:17;;;;;;;0.47;0.47;;;23.50;42.70;;;;;;4762404;30;20337;-57
2021/10/22 04:21:44;;;;;;;0.43;0.43;;;23.50;42.70;;;;;;4773712;29;20135;-57
2021/10/22 04:24:11;;;;;;;0.60;0.60;;;23.50;42.70;;;;;;4775938;29;20054;-57
2021/10/22 04:26:38;;;;;;;0.50;0.50;;;23.50;42.70;;;;;;4773032;29;20509;-57
2021/10/22 04:29:05;;;;;;;0.75;0.47;;;23.50;42.70;;;;;;4769849;29;20147;-57
2021/10/22 04:31:32;;;;;;;0.52;0.52;;;23.50;42.80;;;;;;4781694;29;20479;-57
2021/10/22 04:33:59;;;;;;;0.68;0.47;;;23.50;42.80;;;;;;4779119;29;20063;-57
2021/10/22 04:36:26;;;;;;;1.27;0.93;;;23.50;42.80;;;;;;4773080;30;20134;-58
2021/10/22 04:41:40;;;;;;;0.60;0.55;;;23.50;42.70;;;;;;4776197;30;20047;-57
2021/10/22 04:44:07;;;;;;;0.45;0.35;;;23.50;42.70;;;;;;4774921;29;20709;-58
2021/10/22 04:46:35;;;;;;;0.70;0.38;;;23.50;42.70;;;;;;4780326;29;20047;-57
2021/10/22 04:49:02;;;;;;;0.40;0.40;;;23.50;42.70;;;;;;4768867;29;20047;-57
2021/10/22 04:51:29;;;;;;;0.35;0.35;;;23.50;42.80;;;;;;4777745;29;20146;-57
2021/10/22 04:53:56;;;;;;;1.00;0.52;;;23.50;42.70;;;;;;4777791;29;20135;-57
2021/10/22 04:56:23;;;;;;;0.50;0.50;;;23.50;42.80;;;;;;4773201;29;20155;-57
2021/10/22 04:58:50;;;;;;;0.98;0.63;;;23.50;42.70;;;;;;4771042;29;20061;-57
2021/10/22 05:01:17;;;;;;;1.10;0.40;;;23.50;42.70;;;;;;4775737;30;20079;-57
2021/10/22 05:03:45;;;;;;;1.65;0.30;;;23.50;42.80;;;;;;4778907;29;20102;-57
2021/10/22 05:06:12;;;;;;;0.55;0.40;;;23.50;42.70;;;;;;4772937;30;20094;-57
2021/10/22 05:08:39;;;;;;;1.67;0.30;;;23.50;42.70;;;;;;4769748;29;20112;-57
2021/10/22 05:11:06;;;;;;;0.57;0.30;;;23.50;42.60;;;;;;4772632;29;20083;-57
2021/10/22 05:13:33;;;;;;;0.45;0.45;;;23.50;42.60;;;;;;4777579;29;20048;-58
2021/10/22 05:16:01;;;;;;;0.38;0.30;;;23.50;42.60;;;;;;4773869;29;20055;-57
2021/10/22 05:18:29;;;;;;;0.20;0.20;;;23.50;42.60;;;;;;4772316;29;20189;-58
2021/10/22 05:20:56;;;;;;;0.63;0.40;;;23.50;42.70;;;;;;4776498;30;20545;-58
2021/10/22 05:23:23;;;;;;;0.52;0.40;;;23.60;42.90;;;;;;4790124;29;20574;-57
2021/10/22 05:25:50;;;;;;;0.30;0.30;;;23.60;43.00;;;;;;4779517;29;20347;-57
2021/10/22 05:28:17;;;;;;;0.60;0.40;;;23.60;43.10;;;;;;4767035;29;20061;-57
2021/10/22 05:30:45;;;;;;;0.35;0.35;;;23.60;43.30;;;;;;4775440;29;20055;-57
2021/10/22 05:33:12;;;;;;;0.75;0.50;;;23.60;43.40;;;;;;4773050;29;20051;-57
2021/10/22 05:35:40;;;;;;;0.43;0.30;;;23.60;43.40;;;;;;4768968;29;20150;-57
2021/10/22 05:38:07;;;;;;;0.55;0.30;;;23.60;43.40;;;;;;4766359;29;20146;-57
2021/10/22 05:40:35;;;;;;;0.32;0.20;;;23.60;43.30;;;;;;4767692;29;20055;-57
2021/10/22 05:43:04;;;;;;;2.22;0.43;;;23.60;43.20;;;;;;4769465;30;20056;-57
2021/10/22 05:45:31;;;;;;;0.40;0.40;;;23.70;43.30;;;;;;4772882;30;20051;-57
2021/10/22 05:47:59;;;;;;;0.95;0.40;;;23.70;43.20;;;;;;4764195;29;20155;-58
2021/10/22 05:50:26;;;;;;;0.40;0.40;;;23.70;43.10;;;;;;4763997;29;20120;-57
2021/10/22 05:52:53;;;;;;;0.30;0.30;;;23.70;43.50;;;;;;4771623;30;20178;-57
2021/10/22 05:55:21;;;;;;;0.52;0.52;;;23.70;42.90;;;;;;4771671;30;20077;-57
2021/10/22 05:57:48;;;;;;;1.13;0.70;;;23.70;42.90;;;;;;4769724;29;20059;-57
2021/10/22 06:00:15;;;;;;;0.35;0.30;;;23.70;42.90;;;;;;4761925;29;20083;-57
2021/10/22 06:02:42;;;;;;;2.83;0.40;;;23.70;42.90;;;;;;4774611;29;20051;-58
2021/10/22 06:05:10;;;;;;;1.10;0.45;;;23.70;43.00;;;;;;4777758;29;20055;-58
2021/10/22 06:07:38;;;;;;;0.52;0.50;;;23.80;43.30;;;;;;4774822;29;20108;-60
2021/10/22 06:10:05;;;;;;;1.00;0.95;;;23.80;43.30;;;;;;4757923;29;20159;-58
2021/10/22 06:12:33;;;;;;;0.45;0.45;;;23.80;43.90;;;;;;4772287;29;20088;-58
2021/10/22 06:15:00;;;;;;;0.73;0.60;;;23.80;43.40;;;;;;4776501;29;20087;-58
2021/10/22 06:17:27;;;;;;;0.40;0.40;;;23.80;43.50;;;;;;4773207;29;20079;-59
2021/10/22 06:19:57;;;;;;;0.95;0.63;;;23.90;43.60;;;;;;4763053;30;20137;-58
2021/10/22 06:23:52;;;;;;;0.70;0.70;;;23.90;43.70;;;;;;4775321;30;20059;-58
2021/10/22 06:25:13;;;;;;;2.38;0.77;;;24.00;43.80;;;;;;4773099;30;20059;-58
2021/10/22 06:27:41;;;;;;;0.40;0.35;;;24.00;43.60;;;;;;4772675;29;20051;-58
2021/10/22 06:30:08;;;;;;;2.20;0.63;;;24.10;43.50;;;;;;4766457;29;20157;-59
2021/10/22 06:32:35;;;;;;;1.38;0.45;;;24.10;43.40;;;;;;4774123;29;20059;-59
2021/10/22 06:35:02;;;;;;;0.50;0.50;;;24.20;43.50;;;;;;4774700;30;20067;-60
2021/10/22 06:37:29;;;;;;;2.28;0.80;;;24.20;43.50;;;;;;4775249;29;20071;-60
2021/10/22 06:39:56;;;;;;;1.17;0.60;;;24.20;43.40;;;;;;4761922;29;20052;-60
2021/10/22 06:42:24;;;;;;;2.20;0.70;;;24.30;43.40;;;;;;4774991;29;20077;-60
2021/10/22 06:44:51;;;;;;;0.93;0.82;;;24.30;43.40;;;;;;4771019;30;20089;-59
2021/10/22 06:47:18;;;;;;;3.83;0.70;;;24.40;43.40;;;;;;4756444;30;20066;-59
2021/10/22 06:49:45;;;;;;;3.67;0.90;;;24.40;43.30;;;;;;4757690;29;20163;-60
2021/10/22 06:52:12;;;;;;;2.47;0.68;;;24.50;43.30;;;;;;4771966;29;20062;-59
2021/10/22 06:54:39;;;;;;;3.40;1.00;;;24.50;43.40;;;;;;4777482;29;20490;-60
2021/10/22 06:57:06;;;;;;;2.65;0.80;;;24.50;43.40;;;;;;4776850;29;20059;-60
2021/10/22 06:59:33;;;;;;;2.70;0.80;;;24.60;43.50;;;;;;4761928;29;20134;-60
2021/10/22 07:02:00;;;;;;;2.03;1.30;;;24.60;43.50;;;;;;4775494;30;20566;-59
2021/10/22 07:04:28;;;;;;;1.17;0.90;;;24.60;43.50;;;;;;4780451;30;20166;-59
2021/10/22 07:09:46;;;;;;;1.25;0.82;;;24.70;43.60;;;;;;4762446;29;20051;-59
2021/10/22 07:12:13;;;;;;;4.95;1.23;;;24.80;43.70;;;;;;4771526;29;20959;-59
2021/10/22 07:14:49;;;;;;;3.35;1.00;;;24.80;43.60;;;;;;4774960;30;20055;-59
2021/10/22 07:17:16;;;;;;;0.60;0.60;;;24.80;43.80;;;;;;4776829;29;20058;-57
2021/10/22 07:19:43;;;;;;;5.25;1.00;;;24.90;44.00;;;;;;4761315;29;20179;-58
2021/10/22 07:22:14;;;;;;;1.00;0.90;;;24.90;43.80;;;;;;4772312;29;20142;-58
2021/10/22 07:24:41;;;;;;;2.53;0.90;;;24.90;43.60;;;;;;4771148;30;20043;-57
2021/10/22 07:27:08;;;;;;;2.75;1.27;;;25.00;43.50;;;;;;4771425;29;20055;-59
2021/10/22 07:29:35;;;;;;;1.13;0.70;;;25.10;43.40;;;;;;4758416;29;20138;-59
2021/10/22 07:32:03;;;;;;;0.80;0.70;;;25.10;43.30;;;;;;4773088;29;20093;-59
2021/10/22 07:34:30;;;;;;;0.85;0.77;;;25.10;43.20;;;;;;4772942;29;20122;-59
2021/10/22 07:36:57;;;;;;;2.72;1.00;;;25.20;43.10;;;;;;4775117;29;20146;-58
2021/10/22 07:39:24;;;;;;;2.80;0.80;;;25.20;43.00;;;;;;4767909;29;20560;-59
2021/10/22 07:42:06;;;;;;;0.85;0.82;;;25.20;42.90;;;;;;4760385;30;20501;-59
2021/10/22 07:44:54;;;;;;;2.05;0.68;;;25.30;42.80;;;;;;4775599;29;20047;-59
2021/10/22 07:47:22;;;;;;;2.72;0.75;;;25.30;42.60;;;;;;4771867;30;20074;-59
2021/10/22 07:49:51;;;;;;;1.42;1.00;;;25.30;42.50;;;;;;4758496;30;20890;-60
2021/10/22 07:52:26;;;;;;;2.38;0.82;;;25.40;42.40;;;;;;4774882;30;20577;-59
2021/10/22 07:54:55;;;;;;;4.53;0.95;;;25.40;42.10;;;;;;4772537;29;20044;-59
2021/10/22 07:57:23;;;;;;;1.33;0.80;;;25.40;42.00;;;;;;4772158;29;20043;-59
2021/10/22 07:59:51;;;;;;;2.97;0.90;;;25.40;41.90;;;;;;4761161;29;20778;-59
2021/10/22 08:02:19;;;;;;;0.95;0.90;;;25.40;41.80;;;;;;4775610;30;20130;-60
2021/10/22 08:04:48;;;;;;;2.15;0.85;;;25.40;41.70;;;;;;4772700;29;20063;-59
2021/10/22 08:07:18;;;;;;;1.45;0.82;;;25.40;41.70;;;;;;4770207;29;20055;-59
2021/10/22 08:09:51;;;;;;;3.00;0.60;;;25.40;41.60;;;;;;4761621;29;20146;-59
2021/10/22 08:12:18;;;;;;;1.45;1.10;;;25.40;41.60;;;;;;4771903;29;20094;-59
2021/10/22 08:14:46;;;;;;;0.77;0.77;;;25.40;41.60;;;;;;4772848;30;20464;-59
2021/10/22 08:17:15;;;;;;;0.95;0.50;;;25.40;41.60;;;;;;4770571;29;20139;-59
2021/10/22 08:19:43;;;;;;;0.95;0.70;;;25.40;41.50;;;;;;4761821;29;20097;-59
2021/10/22 08:22:27;;;;;;;2.35;0.70;;;25.40;41.50;;;;;;4768699;29;20414;-59
2021/10/22 08:24:59;;;;;;;1.40;0.73;;;25.40;41.50;;;;;;4771302;29;20048;-59
2021/10/22 08:27:28;;;;;;;1.05;0.65;;;25.40;41.50;;;;;;4767569;29;20051;-60
2021/10/22 08:29:56;;;;;;;0.60;0.60;;;25.40;41.50;;;;;;4759271;29;20598;-59
2021/10/22 08:32:23;;;;;;;1.23;0.60;;;25.40;41.50;;;;;;4769428;30;20146;-59
2021/10/22 08:34:50;;;;;;;0.88;0.70;;;25.40;41.50;;;;;;4775686;29;20060;-59
2021/10/22 08:37:17;;;;;;;1.02;0.60;;;25.40;41.60;;;;;;4772746;29;20111;-58
2021/10/22 08:39:45;;;;;;;2.90;0.75;;;25.40;41.60;;;;;;4761511;29;20043;-58
2021/10/22 08:42:17;;;;;;;0.98;0.80;;;25.40;41.60;;;;;;4772599;29;20186;-57
2021/10/22 08:44:44;;;;;;;0.85;0.85;;;25.40;41.60;;;;;;4774229;30;20131;-59
2021/10/22 08:47:12;;;;;;;4.60;0.98;;;25.50;41.60;;;;;;4773431;29;20441;-59
2021/10/22 08:49:39;;;;;;;1.77;1.63;;;25.50;41.60;;;;;;4762390;29;20384;-60
2021/10/22 08:52:08;;;;;;;1.98;1.70;;;25.50;41.80;;;;;;4775087;29;20166;-59
2021/10/22 08:54:35;;;;;;;3.10;1.30;;;25.50;41.80;;;;;;4775507;30;20477;-59
2021/10/22 08:57:14;;;;;;;5.03;1.70;;;25.60;41.80;;;;;;4773152;30;20158;-58
2021/10/22 08:59:41;;;;;;;2.85;1.20;;;25.60;41.80;;;;;;4758597;29;20472;-59
2021/10/22 09:02:25;;;;;;;2.17;1.48;;;25.60;41.60;;;;;;4774994;29;20534;-59
2021/10/22 09:05:00;;;;;;;1.45;1.30;;;25.70;41.50;;;;;;4775906;29;20055;-59
2021/10/22 09:07:49;;;;;;;2.40;2.00;;;25.70;41.40;;;;;;4772137;29;20146;-59
2021/10/22 09:10:22;;;;;;;1.63;1.52;;;25.70;41.40;;;;;;4767450;29;20052;-59
2021/10/22 09:12:53;;;;;;;3.40;1.48;;;25.70;41.40;;;;;;4775076;30;20078;-59
2021/10/22 09:15:23;;;;;;;2.10;1.67;;;25.70;41.40;;;;;;4775098;30;20051;-58
2021/10/22 09:17:53;;;;;;;2.00;1.42;;;25.70;41.40;;;;;;4765052;29;20901;-61
2021/10/22 09:20:23;;;;;;;4.97;1.60;;;25.60;41.40;;;;;;4768419;30;20063;-55
2021/10/22 09:22:57;;;;;;;2.05;1.50;;;25.60;41.60;;;;;;4772645;30;20079;-59
2021/10/22 09:25:26;;;;;;;1.70;1.30;;;25.70;41.60;;;;;;4775296;29;20134;-59
2021/10/22 09:27:59;;;;;;;2.17;1.67;;;25.60;41.50;;;;;;4768510;29;20059;-59
2021/10/22 09:30:33;;;;;;;2.40;1.40;;;25.60;41.40;;;;;;4770055;29;20082;-58
2021/10/22 09:33:17;;;;;;;1.27;1.15;;;25.60;41.40;;;;;;4773976;29;20055;-58
2021/10/22 09:35:55;;;;;;;2.47;1.48;;;25.60;41.40;;;;;;4775841;29;20442;-58
2021/10/22 09:38:25;;;;;;;2.47;0.98;;;25.60;41.30;;;;;;4763277;29;20079;-60
2021/10/22 09:41:01;;;;;;;1.35;1.17;;;25.70;41.30;;;;;;4764626;29;20055;-60
2021/10/22 09:43:37;;;;;;;2.85;1.17;;;25.70;41.40;;;;;;4774855;29;20065;-59
2021/10/22 09:46:17;;;;;;;3.38;1.40;;;25.70;41.40;;;;;;4773911;30;20060;-58
2021/10/22 09:48:47;;;;;;;1.33;1.23;;;25.70;41.40;;;;;;4762563;29;20120;-58
2021/10/22 09:51:33;;;;;;;3.25;1.45;;;25.70;41.40;;;;;;4769589;29;20077;-58
2021/10/22 09:54:09;;;;;;;3.33;1.60;;;25.80;41.40;;;;;;4772662;30;20059;-59
2021/10/22 09:56:38;;;;;;;1.17;1.08;;;25.80;41.30;;;;;;4771363;29;20066;-58
2021/10/22 09:59:23;;;;;;;1.52;1.00;;;25.80;41.10;;;;;;4760016;29;20467;-56
2021/10/22 10:01:54;;;;;;;1.20;0.93;;;25.90;41.10;;;;;;4769918;29;20143;-59
2021/10/22 10:04:27;;;;;;;1.33;1.23;;;25.90;41.10;;;;;;4767289;30;20059;-59
2021/10/22 10:07:02;;;;;;;2.60;1.45;;;25.90;41.00;;;;;;4772907;30;20051;-59
2021/10/22 10:09:29;;;;;;;2.10;1.10;;;26.00;41.00;;;;;;4762745;29;20138;-60
2021/10/22 10:12:01;;;;;;;1.08;1.00;;;26.00;41.00;;;;;;4768033;29;20130;-58
2021/10/22 10:14:32;;;;;;;2.55;1.40;;;26.00;40.90;;;;;;4771745;29;20055;-59
2021/10/22 10:17:02;;;;;;;1.30;1.20;;;26.00;40.80;;;;;;4772917;30;20091;-59
2021/10/22 10:19:43;;;;;;;0.70;0.70;;;26.00;40.80;;;;;;4759115;29;20051;-59
2021/10/22 10:22:19;;;;;;;1.10;0.95;;;26.00;40.70;;;;;;4772479;29;20135;-59
2021/10/22 10:24:55;;;;;;;11.32;1.35;;;26.10;40.70;;;;;;4770785;30;20043;-59
2021/10/22 10:27:24;;;;;;;1.67;0.90;;;26.10;40.70;;;;;;4773717;29;20055;-59
2021/10/22 10:29:55;;;;;;;1.40;1.10;;;26.10;40.60;;;;;;4763323;29;20067;-59
2021/10/22 10:32:25;;;;;;;1.70;0.80;;;26.10;40.50;;;;;;4774179;29;20374;-59
2021/10/22 10:35:09;;;;;;;4.82;1.00;;;26.20;40.60;;;;;;4771096;29;20495;-58
2021/10/22 10:37:39;;;;;;;1.25;1.08;;;26.20;40.50;;;;;;4767429;29;20091;-59
2021/10/22 10:40:18;;;;;;;;;;;26.20;40.40;;;;;;4766891;29;20368;-59
2021/10/22 10:42:48;;;;;;;4.25;1.50;;;26.20;40.40;;;;;;4774743;30;19925;-59
2021/10/22 10:45:39;;;;;;;5.82;2.10;;;26.20;40.30;;;;;;4773078;29;20112;-58
2021/10/22 10:48:18;;;;;;;3.72;1.55;;;26.20;40.30;;;;;;4765688;29;20972;-59
2021/10/22 10:50:56;;;;;;;7.18;1.27;;;26.20;40.20;;;;;;4772197;30;20051;-59
2021/10/22 10:53:35;;;;;;;2.33;1.00;;;26.20;40.30;;;;;;4775397;29;20063;-58
2021/10/22 10:56:06;;;;;;;5.43;1.02;;;26.20;40.30;;;;;;4772477;29;20097;-58
2021/10/22 10:58:45;;;;;;;4.38;0.98;;;26.20;40.40;;;;;;4765258;29;20135;-59
2021/10/22 11:01:36;;;;;;;4.30;1.08;;;26.20;40.40;;;;;;4771997;30;20094;-59
2021/10/22 11:04:05;;;;;;;1.27;1.15;;;26.20;40.70;;;;;;4775280;29;20059;-59
2021/10/22 11:06:42;;;;;;;2.90;0.90;;;26.30;40.80;;;;;;4778754;29;20132;-56
2021/10/22 11:09:13;;;;;;;4.20;1.00;;;26.30;40.80;;;;;;4766100;29;20148;-58
2021/10/22 11:11:41;;;;;;;3.05;1.25;;;26.30;40.80;;;;;;4778169;29;20138;-58
2021/10/22 11:14:12;;;;;;;8.50;1.27;;;26.40;41.30;;;;;;4774004;30;20051;-55
2021/10/22 11:16:47;;;;;;;3.70;0.98;;;26.40;40.70;;;;;;4777874;29;20051;-58
2021/10/22 11:19:21;;;;;;;9.45;1.73;;;26.50;40.80;;;;;;4762903;29;20134;-59
2021/10/22 11:21:57;;;;;;;1.15;1.05;;;26.50;40.70;;;;;;4776764;29;20059;-56
2021/10/22 11:24:29;;;;;;;4.93;0.90;;;26.50;40.50;;;;;;4776911;29;20087;-56
2021/10/22 11:27:07;;;;;;;7.15;1.35;;;26.60;40.60;;;;;;4782325;29;20417;-58
2021/10/22 11:29:41;;;;;;;1.60;0.98;;;26.60;40.50;;;;;;4765570;29;20047;-56
2021/10/22 11:32:14;;;;;;;1.63;1.05;;;26.70;40.60;;;;;;4779111;30;20113;-56
2021/10/22 11:34:47;;;;;;;1.85;1.40;;;26.70;40.60;;;;;;4777251;30;20051;-57
2021/10/22 11:37:16;;;;;;;1.33;1.23;;;26.80;40.50;;;;;;4776354;29;20079;-58
2021/10/22 11:39:51;;;;;;;2.42;0.93;;;26.80;40.40;;;;;;4761761;29;21510;-58
2021/10/22 11:42:32;;;;;;;2.55;1.10;;;26.80;40.30;;;;;;4779264;29;20047;-58
2021/10/22 11:45:12;;;;;;;3.58;1.00;;;26.80;40.40;;;;;;4773948;30;20538;-57
2021/10/22 11:47:43;;;;;;;;;;;26.80;40.50;;;;;;4774874;29;20417;-58
2021/10/22 11:50:30;;;;;;;2.42;0.93;;;26.80;40.50;;;;;;4765828;29;19933;-56
2021/10/22 11:53:12;;;;;;;3.75;0.98;;;26.80;40.40;;;;;;4778286;29;20051;-57
2021/10/22 11:55:42;;;;;;;2.03;0.70;;;26.80;40.40;;;;;;4776868;29;20517;-58
2021/10/22 11:58:11;;;;;;;1.65;0.70;;;26.80;40.50;;;;;;4768866;29;20069;-54
2021/10/22 12:00:54;;;;;;;1.17;0.90;;;26.80;40.60;;;;;;4766770;29;20112;-55
2021/10/22 12:03:40;;;;;;;1.05;0.70;;;26.80;40.40;;;;;;4777635;29;20048;-55
2021/10/22 12:06:20;;;;;;;3.17;0.95;;;26.80;40.50;;;;;;4791885;29;20239;-55
2021/10/22 12:08:56;;;;;;;0.80;0.75;;;26.80;40.40;;;;;;4766984;29;20138;-55
2021/10/22 12:11:27;;;;;;;0.88;0.88;;;26.70;40.40;;;;;;4786096;30;20202;-54
2021/10/22 12:13:54;;;;;;;2.35;1.42;;;26.70;40.40;;;;;;4781081;30;20086;-55
2021/10/22 12:16:26;;;;;;;1.73;1.00;;;26.60;40.40;;;;;;4786195;29;20053;-55
2021/10/22 12:18:55;;;;;;;1.42;1.02;;;26.60;40.50;;;;;;4767544;29;20082;-55
2021/10/22 12:21:27;;;;;;;0.95;0.82;;;26.60;40.50;;;;;;4778405;29;20055;-55
2021/10/22 12:24:03;;;;;;;1.45;0.95;;;26.50;40.50;;;;;;4780615;29;20051;-52
2021/10/22 12:26:34;;;;;;;1.52;1.10;;;26.50;40.50;;;;;;4780348;29;20102;-56
2021/10/22 12:29:07;;;;;;;1.30;0.80;;;26.50;40.70;;;;;;4774555;29;20087;-54
2021/10/22 12:31:36;;;;;;;0.95;0.90;;;26.50;40.70;;;;;;4778541;30;20093;-56
2021/10/22 12:34:09;;;;;;;1.10;1.10;;;26.40;40.80;;;;;;4781513;30;20048;-54
2021/10/22 12:36:42;;;;;;;1.38;0.80;;;26.40;40.90;;;;;;4780801;29;20062;-54
2021/10/22 12:39:27;;;;;;;1.23;0.95;;;26.40;41.00;;;;;;4767925;29;20052;-55
2021/10/22 12:41:57;;;;;;;1.52;1.00;;;26.30;41.10;;;;;;4776219;29;20091;-55
2021/10/22 12:44:31;;;;;;;;;;;26.30;41.20;;;;;;4781592;29;20094;-55
2021/10/22 12:46:59;;;;;;;3.70;1.42;;;26.30;41.30;;;;;;4778435;29;20465;-55
2021/10/22 12:49:29;;;;;;;1.77;1.33;;;26.20;41.50;;;;;;4767557;29;20142;-55
2021/10/22 12:52:01;;;;;;;1.83;1.60;;;26.20;41.70;;;;;;4780554;29;20086;-55
2021/10/22 12:54:28;;;;;;;1.48;1.00;;;26.10;41.80;;;;;;4780786;29;20375;-56
2021/10/22 12:57:00;;;;;;;2.63;0.90;;;26.10;41.90;;;;;;4781191;29;20150;-53
2021/10/22 12:59:33;;;;;;;1.30;1.20;;;26.10;42.30;;;;;;4773202;29;20134;-54
2021/10/22 13:02:00;;;;;;;1.15;1.05;;;26.10;42.50;;;;;;4779254;29;20525;-51
2021/10/22 13:04:28;;;;;;;1.05;1.00;;;26.10;42.50;;;;;;4775347;29;20446;-54
2021/10/22 13:07:22;;;;;;;1.27;1.17;;;26.10;42.60;;;;;;4771614;29;20509;-54